Aviation Digital Data Service (ADDS)

Output produced by METARs form (1336 UTC 24 August 2019)
found at http://www.aviationweather.gov/metar/data/
 
Forecast for: ZSNB (NINGBO/LISHE , CN)
Text: TAF ZSNB 240759Z 2412/2512 13004MPS 5000 BR SCT040 TX34/2506Z TN27/2421Z
Forecast period: 1200 UTC 24 August 2019 to 1200 UTC 25 August 2019
Forecast type: FROM: standard forecast or significant change
Winds: from the SE (130 degrees) at 9 MPH (8 knots; 4.1 m/s)
Visibility: 3 miles (5 km)
Ceiling: at least 12,000 feet AGL
Clouds: scattered clouds at 4000 feet AGL
Weather: BR  (mist)
Text: TEMPO 2506/2512 33007G12MPS TSRA BKN020 FEW033CB
Forecast period: 0600 to 1200 UTC 25 August 2019
Forecast type: TEMPORARY: The following changes expected for less than half the time period
Winds: from the NNW (330 degrees) at 16 MPH (14 knots; 7.2 m/s)
gusting to 26 MPH (23 knots; 11.8 m/s)
Visibility: missing
Ceiling: 2000 feet AGL
Clouds: broken clouds at 2000 feet AGL
few clouds at 3300 feet AGL
Weather: TSRA  (rain associated with thunderstorm(s))